sensor_id;sensor_type;location;lat;lon;timestamp;temperature;humidity
31443;SHT31;18065;55.876;9.830;2023-02-07T00:01:50;21.50;49.52
31443;SHT31;18065;55.876;9.830;2023-02-07T00:04:19;21.55;49.71
31443;SHT31;18065;55.876;9.830;2023-02-07T00:06:47;21.52;49.73
31443;SHT31;18065;55.876;9.830;2023-02-07T00:09:17;21.52;49.71
31443;SHT31;18065;55.876;9.830;2023-02-07T00:11:46;21.52;49.74
31443;SHT31;18065;55.876;9.830;2023-02-07T00:14:15;21.53;49.80
31443;SHT31;18065;55.876;9.830;2023-02-07T00:16:46;21.49;49.76
31443;SHT31;18065;55.876;9.830;2023-02-07T00:19:15;21.52;49.81
31443;SHT31;18065;55.876;9.830;2023-02-07T00:21:44;21.49;49.81
31443;SHT31;18065;55.876;9.830;2023-02-07T00:24:12;21.52;49.90
31443;SHT31;18065;55.876;9.830;2023-02-07T00:26:43;21.52;49.90
31443;SHT31;18065;55.876;9.830;2023-02-07T00:29:13;21.50;49.80
31443;SHT31;18065;55.876;9.830;2023-02-07T00:31:47;21.53;49.85
31443;SHT31;18065;55.876;9.830;2023-02-07T00:34:16;21.50;49.89
31443;SHT31;18065;55.876;9.830;2023-02-07T00:36:44;21.55;49.87
31443;SHT31;18065;55.876;9.830;2023-02-07T00:39:15;21.52;49.94
31443;SHT31;18065;55.876;9.830;2023-02-07T00:41:44;21.52;49.89
31443;SHT31;18065;55.876;9.830;2023-02-07T00:44:13;21.52;49.97
31443;SHT31;18065;55.876;9.830;2023-02-07T00:46:42;21.52;49.87
31443;SHT31;18065;55.876;9.830;2023-02-07T00:49:13;21.52;49.93
31443;SHT31;18065;55.876;9.830;2023-02-07T00:51:42;21.50;49.96
31443;SHT31;18065;55.876;9.830;2023-02-07T00:54:10;21.50;49.95
31443;SHT31;18065;55.876;9.830;2023-02-07T00:56:39;21.52;49.95
31443;SHT31;18065;55.876;9.830;2023-02-07T00:59:08;21.52;49.93
31443;SHT31;18065;55.876;9.830;2023-02-07T01:01:37;21.52;49.96
31443;SHT31;18065;55.876;9.830;2023-02-07T01:04:06;21.50;49.96
31443;SHT31;18065;55.876;9.830;2023-02-07T01:06:37;21.52;49.89
31443;SHT31;18065;55.876;9.830;2023-02-07T01:09:06;21.52;49.88
31443;SHT31;18065;55.876;9.830;2023-02-07T01:11:34;21.52;49.81
31443;SHT31;18065;55.876;9.830;2023-02-07T01:14:03;21.49;49.81
31443;SHT31;18065;55.876;9.830;2023-02-07T01:16:34;21.53;49.78
31443;SHT31;18065;55.876;9.830;2023-02-07T01:19:07;21.52;49.79
31443;SHT31;18065;55.876;9.830;2023-02-07T01:21:38;21.52;49.76
31443;SHT31;18065;55.876;9.830;2023-02-07T01:24:08;21.50;49.76
31443;SHT31;18065;55.876;9.830;2023-02-07T01:26:37;21.52;49.76
31443;SHT31;18065;55.876;9.830;2023-02-07T01:29:07;21.52;49.69
31443;SHT31;18065;55.876;9.830;2023-02-07T01:31:37;21.50;49.68
31443;SHT31;18065;55.876;9.830;2023-02-07T01:34:06;21.50;49.74
31443;SHT31;18065;55.876;9.830;2023-02-07T01:36:35;21.52;49.65
31443;SHT31;18065;55.876;9.830;2023-02-07T01:39:06;21.50;49.64
31443;SHT31;18065;55.876;9.830;2023-02-07T01:41:35;21.52;49.67
31443;SHT31;18065;55.876;9.830;2023-02-07T01:44:06;21.50;49.65
31443;SHT31;18065;55.876;9.830;2023-02-07T01:46:35;21.49;49.59
31443;SHT31;18065;55.876;9.830;2023-02-07T01:49:07;21.52;49.58
31443;SHT31;18065;55.876;9.830;2023-02-07T01:51:39;21.52;49.61
31443;SHT31;18065;55.876;9.830;2023-02-07T01:54:13;21.49;49.58
31443;SHT31;18065;55.876;9.830;2023-02-07T01:56:45;21.50;49.56
31443;SHT31;18065;55.876;9.830;2023-02-07T01:59:14;21.49;49.54
31443;SHT31;18065;55.876;9.830;2023-02-07T02:01:44;21.48;49.53
31443;SHT31;18065;55.876;9.830;2023-02-07T02:04:13;21.49;49.57
31443;SHT31;18065;55.876;9.830;2023-02-07T02:06:42;21.50;49.54
31443;SHT31;18065;55.876;9.830;2023-02-07T02:09:15;21.49;49.53
31443;SHT31;18065;55.876;9.830;2023-02-07T02:12:07;21.49;49.65
31443;SHT31;18065;55.876;9.830;2023-02-07T02:14:53;21.49;49.64
31443;SHT31;18065;55.876;9.830;2023-02-07T02:17:32;21.48;49.51
31443;SHT31;18065;55.876;9.830;2023-02-07T02:20:24;21.48;49.61
31443;SHT31;18065;55.876;9.830;2023-02-07T02:23:05;21.46;49.50
31443;SHT31;18065;55.876;9.830;2023-02-07T02:29:12;21.48;49.60
31443;SHT31;18065;55.876;9.830;2023-02-07T02:34:57;21.45;49.54
31443;SHT31;18065;55.876;9.830;2023-02-07T02:37:36;21.48;49.52
31443;SHT31;18065;55.876;9.830;2023-02-07T02:40:16;21.46;49.49
31443;SHT31;18065;55.876;9.830;2023-02-07T02:42:51;21.48;49.51
31443;SHT31;18065;55.876;9.830;2023-02-07T02:45:26;21.48;49.50
31443;SHT31;18065;55.876;9.830;2023-02-07T02:47:56;21.48;49.46
31443;SHT31;18065;55.876;9.830;2023-02-07T02:50:29;21.49;49.40
31443;SHT31;18065;55.876;9.830;2023-02-07T02:53:01;21.49;49.46
31443;SHT31;18065;55.876;9.830;2023-02-07T02:55:47;21.49;49.49
31443;SHT31;18065;55.876;9.830;2023-02-07T02:58:25;21.48;49.41
31443;SHT31;18065;55.876;9.830;2023-02-07T03:01:04;21.48;49.43
31443;SHT31;18065;55.876;9.830;2023-02-07T03:03:53;21.48;49.51
31443;SHT31;18065;55.876;9.830;2023-02-07T03:06:35;21.48;49.49
31443;SHT31;18065;55.876;9.830;2023-02-07T03:09:15;21.46;49.43
31443;SHT31;18065;55.876;9.830;2023-02-07T03:11:52;21.46;49.36
31443;SHT31;18065;55.876;9.830;2023-02-07T03:14:29;21.46;49.44
31443;SHT31;18065;55.876;9.830;2023-02-07T03:17:06;21.46;49.39
31443;SHT31;18065;55.876;9.830;2023-02-07T03:19:42;21.48;49.39
31443;SHT31;18065;55.876;9.830;2023-02-07T03:22:15;21.50;49.45
31443;SHT31;18065;55.876;9.830;2023-02-07T03:24:49;21.48;49.37
31443;SHT31;18065;55.876;9.830;2023-02-07T03:27:20;21.45;49.44
31443;SHT31;18065;55.876;9.830;2023-02-07T03:29:51;21.42;49.43
31443;SHT31;18065;55.876;9.830;2023-02-07T03:32:27;21.42;49.44
31443;SHT31;18065;55.876;9.830;2023-02-07T03:34:57;21.46;49.49
31443;SHT31;18065;55.876;9.830;2023-02-07T03:37:33;21.45;49.44
31443;SHT31;18065;55.876;9.830;2023-02-07T03:40:04;21.43;49.41
31443;SHT31;18065;55.876;9.830;2023-02-07T03:42:36;21.42;49.47
31443;SHT31;18065;55.876;9.830;2023-02-07T03:45:08;21.45;49.44
31443;SHT31;18065;55.876;9.830;2023-02-07T03:47:39;21.45;49.39
31443;SHT31;18065;55.876;9.830;2023-02-07T03:50:08;21.43;49.40
31443;SHT31;18065;55.876;9.830;2023-02-07T03:52:39;21.42;49.40
31443;SHT31;18065;55.876;9.830;2023-02-07T03:55:09;21.46;49.44
31443;SHT31;18065;55.876;9.830;2023-02-07T03:57:38;21.43;49.45
31443;SHT31;18065;55.876;9.830;2023-02-07T04:00:08;21.46;49.40
31443;SHT31;18065;55.876;9.830;2023-02-07T04:02:37;21.46;49.38
31443;SHT31;18065;55.876;9.830;2023-02-07T04:05:06;21.48;49.42
31443;SHT31;18065;55.876;9.830;2023-02-07T04:07:36;21.48;49.35
31443;SHT31;18065;55.876;9.830;2023-02-07T04:10:09;21.43;49.41
31443;SHT31;18065;55.876;9.830;2023-02-07T04:12:38;21.43;49.38
31443;SHT31;18065;55.876;9.830;2023-02-07T04:15:07;21.45;49.34
31443;SHT31;18065;55.876;9.830;2023-02-07T04:17:37;21.46;49.34
31443;SHT31;18065;55.876;9.830;2023-02-07T04:20:06;21.43;49.32
31443;SHT31;18065;55.876;9.830;2023-02-07T04:22:35;21.43;49.30
31443;SHT31;18065;55.876;9.830;2023-02-07T04:25:07;21.45;49.34
31443;SHT31;18065;55.876;9.830;2023-02-07T04:27:36;21.45;49.35
31443;SHT31;18065;55.876;9.830;2023-02-07T04:30:05;21.48;49.34
31443;SHT31;18065;55.876;9.830;2023-02-07T04:32:34;21.46;49.30
31443;SHT31;18065;55.876;9.830;2023-02-07T04:35:03;21.45;49.27
31443;SHT31;18065;55.876;9.830;2023-02-07T04:37:32;21.45;49.28
31443;SHT31;18065;55.876;9.830;2023-02-07T04:40:00;21.45;49.28
31443;SHT31;18065;55.876;9.830;2023-02-07T04:42:32;21.45;49.25
31443;SHT31;18065;55.876;9.830;2023-02-07T04:45:00;21.45;49.16
31443;SHT31;18065;55.876;9.830;2023-02-07T04:47:32;21.46;49.18
31443;SHT31;18065;55.876;9.830;2023-02-07T04:50:00;21.48;49.06
31443;SHT31;18065;55.876;9.830;2023-02-07T04:52:29;21.43;49.03
31443;SHT31;18065;55.876;9.830;2023-02-07T04:54:58;21.45;49.00
31443;SHT31;18065;55.876;9.830;2023-02-07T04:57:26;21.43;48.99
31443;SHT31;18065;55.876;9.830;2023-02-07T04:59:57;21.45;48.92
31443;SHT31;18065;55.876;9.830;2023-02-07T05:02:26;21.45;48.85
31443;SHT31;18065;55.876;9.830;2023-02-07T05:04:55;21.46;48.88
31443;SHT31;18065;55.876;9.830;2023-02-07T05:07:25;21.43;48.85
31443;SHT31;18065;55.876;9.830;2023-02-07T05:09:54;21.43;48.80
31443;SHT31;18065;55.876;9.830;2023-02-07T05:12:22;21.46;48.83
31443;SHT31;18065;55.876;9.830;2023-02-07T05:14:51;21.43;48.71
31443;SHT31;18065;55.876;9.830;2023-02-07T05:17:22;21.43;48.72
31443;SHT31;18065;55.876;9.830;2023-02-07T05:19:51;21.45;48.62
31443;SHT31;18065;55.876;9.830;2023-02-07T05:22:19;21.43;48.83
31443;SHT31;18065;55.876;9.830;2023-02-07T05:24:48;21.42;48.85
31443;SHT31;18065;55.876;9.830;2023-02-07T05:27:18;21.43;48.91
31443;SHT31;18065;55.876;9.830;2023-02-07T05:29:47;21.43;48.95
31443;SHT31;18065;55.876;9.830;2023-02-07T05:32:16;21.43;48.97
31443;SHT31;18065;55.876;9.830;2023-02-07T05:35:00;21.41;49.01
31443;SHT31;18065;55.876;9.830;2023-02-07T05:37:28;21.42;48.97
31443;SHT31;18065;55.876;9.830;2023-02-07T05:39:57;21.42;49.00
31443;SHT31;18065;55.876;9.830;2023-02-07T05:42:28;21.42;49.13
31443;SHT31;18065;55.876;9.830;2023-02-07T05:44:57;21.41;49.11
31443;SHT31;18065;55.876;9.830;2023-02-07T05:47:25;21.38;49.13
31443;SHT31;18065;55.876;9.830;2023-02-07T05:49:54;21.35;49.16
31443;SHT31;18065;55.876;9.830;2023-02-07T05:52:28;21.36;49.29
31443;SHT31;18065;55.876;9.830;2023-02-07T05:54:56;21.36;49.25
31443;SHT31;18065;55.876;9.830;2023-02-07T05:57:25;21.36;49.33
31443;SHT31;18065;55.876;9.830;2023-02-07T05:59:54;21.36;49.25
31443;SHT31;18065;55.876;9.830;2023-02-07T06:02:23;21.38;49.25
31443;SHT31;18065;55.876;9.830;2023-02-07T06:04:56;21.38;49.28
31443;SHT31;18065;55.876;9.830;2023-02-07T06:07:27;21.38;49.32
31443;SHT31;18065;55.876;9.830;2023-02-07T06:09:58;21.39;49.45
31443;SHT31;18065;55.876;9.830;2023-02-07T06:12:26;21.36;49.35
31443;SHT31;18065;55.876;9.830;2023-02-07T06:14:55;21.35;49.47
31443;SHT31;18065;55.876;9.830;2023-02-07T06:17:25;21.36;49.45
31443;SHT31;18065;55.876;9.830;2023-02-07T06:19:54;21.35;49.47
31443;SHT31;18065;55.876;9.830;2023-02-07T06:22:22;21.34;49.54
31443;SHT31;18065;55.876;9.830;2023-02-07T06:24:53;21.34;49.59
31443;SHT31;18065;55.876;9.830;2023-02-07T06:27:22;21.32;49.62
31443;SHT31;18065;55.876;9.830;2023-02-07T06:29:52;21.31;49.60
31443;SHT31;18065;55.876;9.830;2023-02-07T06:32:21;21.31;49.60
31443;SHT31;18065;55.876;9.830;2023-02-07T06:34:49;21.34;49.59
31443;SHT31;18065;55.876;9.830;2023-02-07T06:37:18;21.32;49.67
31443;SHT31;18065;55.876;9.830;2023-02-07T06:39:47;21.31;49.73
31443;SHT31;18065;55.876;9.830;2023-02-07T06:42:19;21.35;49.82
31443;SHT31;18065;55.876;9.830;2023-02-07T06:44:47;21.32;49.81
31443;SHT31;18065;55.876;9.830;2023-02-07T06:47:16;21.34;49.82
31443;SHT31;18065;55.876;9.830;2023-02-07T06:49:47;21.35;49.87
31443;SHT31;18065;55.876;9.830;2023-02-07T06:52:17;21.38;49.87
31443;SHT31;18065;55.876;9.830;2023-02-07T06:54:46;21.35;49.91
31443;SHT31;18065;55.876;9.830;2023-02-07T06:57:15;21.38;49.92
31443;SHT31;18065;55.876;9.830;2023-02-07T06:59:46;21.39;49.85
31443;SHT31;18065;55.876;9.830;2023-02-07T07:02:15;21.36;49.93
31443;SHT31;18065;55.876;9.830;2023-02-07T07:04:43;21.36;49.88
31443;SHT31;18065;55.876;9.830;2023-02-07T07:07:12;21.36;49.95
31443;SHT31;18065;55.876;9.830;2023-02-07T07:09:41;21.35;50.04
31443;SHT31;18065;55.876;9.830;2023-02-07T07:12:09;21.35;50.24
31443;SHT31;18065;55.876;9.830;2023-02-07T07:14:38;21.35;50.32
31443;SHT31;18065;55.876;9.830;2023-02-07T07:17:09;21.36;50.42
31443;SHT31;18065;55.876;9.830;2023-02-07T07:19:39;21.38;50.39
31443;SHT31;18065;55.876;9.830;2023-02-07T07:22:08;21.42;50.31
31443;SHT31;18065;55.876;9.830;2023-02-07T07:24:37;21.42;50.28
31443;SHT31;18065;55.876;9.830;2023-02-07T07:27:06;21.41;50.21
31443;SHT31;18065;55.876;9.830;2023-02-07T07:29:34;21.41;50.23
31443;SHT31;18065;55.876;9.830;2023-02-07T07:32:03;21.43;50.15
31443;SHT31;18065;55.876;9.830;2023-02-07T07:34:34;21.43;50.04
31443;SHT31;18065;55.876;9.830;2023-02-07T07:37:03;21.45;50.05
31443;SHT31;18065;55.876;9.830;2023-02-07T07:39:33;21.46;50.03
31443;SHT31;18065;55.876;9.830;2023-02-07T07:42:01;21.46;49.99
31443;SHT31;18065;55.876;9.830;2023-02-07T07:44:30;21.48;49.86
31443;SHT31;18065;55.876;9.830;2023-02-07T07:46:59;21.48;49.89
31443;SHT31;18065;55.876;9.830;2023-02-07T07:49:27;21.46;49.91
31443;SHT31;18065;55.876;9.830;2023-02-07T07:51:59;21.49;49.86
31443;SHT31;18065;55.876;9.830;2023-02-07T07:54:27;21.46;49.87
31443;SHT31;18065;55.876;9.830;2023-02-07T07:56:56;21.48;49.99
31443;SHT31;18065;55.876;9.830;2023-02-07T07:59:25;21.49;49.92
31443;SHT31;18065;55.876;9.830;2023-02-07T08:01:53;21.49;49.80
31443;SHT31;18065;55.876;9.830;2023-02-07T08:04:22;21.50;49.78
31443;SHT31;18065;55.876;9.830;2023-02-07T08:06:51;21.46;49.83
31443;SHT31;18065;55.876;9.830;2023-02-07T08:09:22;21.48;49.89
31443;SHT31;18065;55.876;9.830;2023-02-07T08:11:51;21.46;49.89
31443;SHT31;18065;55.876;9.830;2023-02-07T08:14:20;21.46;49.86
31443;SHT31;18065;55.876;9.830;2023-02-07T08:16:48;21.45;49.80
31443;SHT31;18065;55.876;9.830;2023-02-07T08:19:17;21.43;49.78
31443;SHT31;18065;55.876;9.830;2023-02-07T08:21:46;21.43;49.87
31443;SHT31;18065;55.876;9.830;2023-02-07T08:24:16;21.43;49.87
31443;SHT31;18065;55.876;9.830;2023-02-07T08:26:47;21.42;49.82
31443;SHT31;18065;55.876;9.830;2023-02-07T08:29:16;21.42;49.81
31443;SHT31;18065;55.876;9.830;2023-02-07T08:31:45;21.43;49.76
31443;SHT31;18065;55.876;9.830;2023-02-07T08:34:14;21.45;49.72
31443;SHT31;18065;55.876;9.830;2023-02-07T08:36:43;21.45;49.73
31443;SHT31;18065;55.876;9.830;2023-02-07T08:39:12;21.46;49.71
31443;SHT31;18065;55.876;9.830;2023-02-07T08:41:40;21.43;49.65
31443;SHT31;18065;55.876;9.830;2023-02-07T08:44:12;21.48;49.59
31443;SHT31;18065;55.876;9.830;2023-02-07T08:46:41;21.50;49.56
31443;SHT31;18065;55.876;9.830;2023-02-07T08:49:09;21.50;49.54
31443;SHT31;18065;55.876;9.830;2023-02-07T08:51:38;21.53;49.52
31443;SHT31;18065;55.876;9.830;2023-02-07T08:54:07;21.52;49.44
31443;SHT31;18065;55.876;9.830;2023-02-07T08:56:36;21.50;49.43
31443;SHT31;18065;55.876;9.830;2023-02-07T08:59:04;21.55;49.44
31443;SHT31;18065;55.876;9.830;2023-02-07T09:01:36;21.55;49.46
31443;SHT31;18065;55.876;9.830;2023-02-07T09:04:05;21.55;49.33
31443;SHT31;18065;55.876;9.830;2023-02-07T09:06:34;21.56;49.42
31443;SHT31;18065;55.876;9.830;2023-02-07T09:09:03;21.58;49.37
31443;SHT31;18065;55.876;9.830;2023-02-07T09:11:32;21.58;49.31
31443;SHT31;18065;55.876;9.830;2023-02-07T09:14:00;21.58;49.37
31443;SHT31;18065;55.876;9.830;2023-02-07T09:16:29;21.58;49.31
31443;SHT31;18065;55.876;9.830;2023-02-07T09:19:00;21.60;49.29
31443;SHT31;18065;55.876;9.830;2023-02-07T09:21:29;21.59;49.16
31443;SHT31;18065;55.876;9.830;2023-02-07T09:23:58;21.62;49.22
31443;SHT31;18065;55.876;9.830;2023-02-07T09:26:27;21.60;49.22
31443;SHT31;18065;55.876;9.830;2023-02-07T09:28:57;21.59;49.29
31443;SHT31;18065;55.876;9.830;2023-02-07T09:31:26;21.62;49.27
31443;SHT31;18065;55.876;9.830;2023-02-07T09:33:55;21.60;49.31
31443;SHT31;18065;55.876;9.830;2023-02-07T09:36:28;21.59;49.25
31443;SHT31;18065;55.876;9.830;2023-02-07T09:38:58;21.60;49.21
31443;SHT31;18065;55.876;9.830;2023-02-07T09:41:33;21.58;49.26
31443;SHT31;18065;55.876;9.830;2023-02-07T09:44:11;21.58;49.21
31443;SHT31;18065;55.876;9.830;2023-02-07T09:46:46;21.59;49.14
31443;SHT31;18065;55.876;9.830;2023-02-07T09:49:26;21.59;49.12
31443;SHT31;18065;55.876;9.830;2023-02-07T09:51:59;21.59;49.04
31443;SHT31;18065;55.876;9.830;2023-02-07T09:54:33;21.62;48.98
31443;SHT31;18065;55.876;9.830;2023-02-07T09:57:07;21.62;48.95
31443;SHT31;18065;55.876;9.830;2023-02-07T09:59:44;21.62;49.05
31443;SHT31;18065;55.876;9.830;2023-02-07T10:02:20;21.62;49.07
31443;SHT31;18065;55.876;9.830;2023-02-07T10:04:51;21.62;49.10
31443;SHT31;18065;55.876;9.830;2023-02-07T10:07:24;21.62;49.05
31443;SHT31;18065;55.876;9.830;2023-02-07T10:09:53;21.63;48.99
31443;SHT31;18065;55.876;9.830;2023-02-07T10:12:37;21.65;48.99
31443;SHT31;18065;55.876;9.830;2023-02-07T10:15:20;21.62;48.96
31443;SHT31;18065;55.876;9.830;2023-02-07T10:18:06;21.62;48.94
31443;SHT31;18065;55.876;9.830;2023-02-07T10:20:40;21.62;48.87
31443;SHT31;18065;55.876;9.830;2023-02-07T10:23:26;21.62;48.86
31443;SHT31;18065;55.876;9.830;2023-02-07T10:26:03;21.60;48.83
31443;SHT31;18065;55.876;9.830;2023-02-07T10:29:07;21.62;48.66
31443;SHT31;18065;55.876;9.830;2023-02-07T10:31:40;21.60;48.20
31443;SHT31;18065;55.876;9.830;2023-02-07T10:34:14;21.62;48.17
31443;SHT31;18065;55.876;9.830;2023-02-07T10:36:45;21.62;48.11
31443;SHT31;18065;55.876;9.830;2023-02-07T10:39:21;21.60;48.04
31443;SHT31;18065;55.876;9.830;2023-02-07T10:41:53;21.62;47.98
31443;SHT31;18065;55.876;9.830;2023-02-07T10:44:22;21.63;47.89
31443;SHT31;18065;55.876;9.830;2023-02-07T10:46:57;21.63;47.85
31443;SHT31;18065;55.876;9.830;2023-02-07T10:49:28;21.63;47.78
31443;SHT31;18065;55.876;9.830;2023-02-07T10:52:00;21.63;47.84
31443;SHT31;18065;55.876;9.830;2023-02-07T10:54:48;21.65;47.81
31443;SHT31;18065;55.876;9.830;2023-02-07T10:57:19;21.65;47.69
31443;SHT31;18065;55.876;9.830;2023-02-07T10:59:48;21.65;47.67
31443;SHT31;18065;55.876;9.830;2023-02-07T11:05:30;21.66;47.70
31443;SHT31;18065;55.876;9.830;2023-02-07T11:08:02;21.65;47.64
31443;SHT31;18065;55.876;9.830;2023-02-07T11:10:38;21.65;48.01
31443;SHT31;18065;55.876;9.830;2023-02-07T11:13:12;21.63;48.03
31443;SHT31;18065;55.876;9.830;2023-02-07T11:15:45;21.66;48.06
31443;SHT31;18065;55.876;9.830;2023-02-07T11:18:30;21.63;47.97
31443;SHT31;18065;55.876;9.830;2023-02-07T11:21:04;21.62;47.95
31443;SHT31;18065;55.876;9.830;2023-02-07T11:23:33;21.62;47.89
31443;SHT31;18065;55.876;9.830;2023-02-07T11:26:05;21.66;47.86
31443;SHT31;18065;55.876;9.830;2023-02-07T11:28:33;21.67;48.04
31443;SHT31;18065;55.876;9.830;2023-02-07T11:31:05;21.70;48.53
31443;SHT31;18065;55.876;9.830;2023-02-07T11:33:35;21.71;48.48
31443;SHT31;18065;55.876;9.830;2023-02-07T11:36:10;21.71;48.30
31443;SHT31;18065;55.876;9.830;2023-02-07T11:38:41;21.73;47.81
31443;SHT31;18065;55.876;9.830;2023-02-07T11:41:21;21.73;47.63
31443;SHT31;18065;55.876;9.830;2023-02-07T11:43:52;21.71;47.64
31443;SHT31;18065;55.876;9.830;2023-02-07T11:46:23;21.69;47.55
31443;SHT31;18065;55.876;9.830;2023-02-07T11:48:57;21.67;47.51
31443;SHT31;18065;55.876;9.830;2023-02-07T11:51:26;21.66;47.53
31443;SHT31;18065;55.876;9.830;2023-02-07T11:53:59;21.66;47.54
31443;SHT31;18065;55.876;9.830;2023-02-07T11:56:35;21.66;47.52
31443;SHT31;18065;55.876;9.830;2023-02-07T11:59:07;21.66;47.44
31443;SHT31;18065;55.876;9.830;2023-02-07T12:01:41;21.69;47.36
31443;SHT31;18065;55.876;9.830;2023-02-07T12:04:14;21.65;47.40
31443;SHT31;18065;55.876;9.830;2023-02-07T12:06:48;21.67;47.37
31443;SHT31;18065;55.876;9.830;2023-02-07T12:09:25;21.70;47.34
31443;SHT31;18065;55.876;9.830;2023-02-07T12:12:02;21.66;47.21
31443;SHT31;18065;55.876;9.830;2023-02-07T12:14:34;21.67;47.09
31443;SHT31;18065;55.876;9.830;2023-02-07T12:17:07;21.70;47.01
31443;SHT31;18065;55.876;9.830;2023-02-07T12:19:50;21.67;47.00
31443;SHT31;18065;55.876;9.830;2023-02-07T12:22:22;21.70;46.98
31443;SHT31;18065;55.876;9.830;2023-02-07T12:24:56;21.70;46.93
31443;SHT31;18065;55.876;9.830;2023-02-07T12:27:34;21.70;46.89
31443;SHT31;18065;55.876;9.830;2023-02-07T12:30:15;21.69;46.88
31443;SHT31;18065;55.876;9.830;2023-02-07T12:32:49;21.70;46.83
31443;SHT31;18065;55.876;9.830;2023-02-07T12:35:24;21.70;46.85
31443;SHT31;18065;55.876;9.830;2023-02-07T12:37:58;21.69;46.80
31443;SHT31;18065;55.876;9.830;2023-02-07T12:40:29;21.73;46.82
31443;SHT31;18065;55.876;9.830;2023-02-07T12:43:08;21.69;46.82
31443;SHT31;18065;55.876;9.830;2023-02-07T12:45:50;21.66;46.82
31443;SHT31;18065;55.876;9.830;2023-02-07T12:48:35;21.67;46.88
31443;SHT31;18065;55.876;9.830;2023-02-07T12:51:18;21.70;46.79
31443;SHT31;18065;55.876;9.830;2023-02-07T12:54:01;21.70;46.83
31443;SHT31;18065;55.876;9.830;2023-02-07T12:56:40;21.70;46.82
31443;SHT31;18065;55.876;9.830;2023-02-07T12:59:16;21.70;46.77
31443;SHT31;18065;55.876;9.830;2023-02-07T13:01:54;21.74;46.79
31443;SHT31;18065;55.876;9.830;2023-02-07T13:04:42;21.71;46.79
31443;SHT31;18065;55.876;9.830;2023-02-07T13:07:21;21.74;46.71
31443;SHT31;18065;55.876;9.830;2023-02-07T13:09:59;21.71;46.66
31443;SHT31;18065;55.876;9.830;2023-02-07T13:12:38;21.71;46.59
31443;SHT31;18065;55.876;9.830;2023-02-07T13:15:17;21.76;46.60
31443;SHT31;18065;55.876;9.830;2023-02-07T13:17:53;21.74;46.62
31443;SHT31;18065;55.876;9.830;2023-02-07T13:20:43;21.79;46.54
31443;SHT31;18065;55.876;9.830;2023-02-07T13:23:18;21.77;46.47
31443;SHT31;18065;55.876;9.830;2023-02-07T13:25:53;21.77;46.47
31443;SHT31;18065;55.876;9.830;2023-02-07T13:28:25;21.76;46.52
31443;SHT31;18065;55.876;9.830;2023-02-07T13:30:58;21.77;46.58
31443;SHT31;18065;55.876;9.830;2023-02-07T13:33:31;21.80;47.10
31443;SHT31;18065;55.876;9.830;2023-02-07T13:36:05;21.81;47.52
31443;SHT31;18065;55.876;9.830;2023-02-07T13:38:52;21.83;47.50
31443;SHT31;18065;55.876;9.830;2023-02-07T13:41:31;21.83;47.43
31443;SHT31;18065;55.876;9.830;2023-02-07T13:44:07;21.86;47.37
31443;SHT31;18065;55.876;9.830;2023-02-07T13:46:56;21.84;47.38
31443;SHT31;18065;55.876;9.830;2023-02-07T13:49:39;21.87;47.34
31443;SHT31;18065;55.876;9.830;2023-02-07T13:52:11;21.87;47.28
31443;SHT31;18065;55.876;9.830;2023-02-07T13:54:48;21.87;47.26
31443;SHT31;18065;55.876;9.830;2023-02-07T13:57:21;21.87;47.23
31443;SHT31;18065;55.876;9.830;2023-02-07T14:00:17;21.89;47.20
31443;SHT31;18065;55.876;9.830;2023-02-07T14:02:52;21.86;47.22
31443;SHT31;18065;55.876;9.830;2023-02-07T14:05:24;21.86;47.14
31443;SHT31;18065;55.876;9.830;2023-02-07T14:07:59;21.86;47.18
31443;SHT31;18065;55.876;9.830;2023-02-07T14:10:41;21.87;47.13
31443;SHT31;18065;55.876;9.830;2023-02-07T14:13:22;21.86;47.15
31443;SHT31;18065;55.876;9.830;2023-02-07T14:16:06;21.84;47.18
31443;SHT31;18065;55.876;9.830;2023-02-07T14:18:48;21.84;47.14
31443;SHT31;18065;55.876;9.830;2023-02-07T14:21:31;21.84;47.12
31443;SHT31;18065;55.876;9.830;2023-02-07T14:24:20;21.84;47.16
31443;SHT31;18065;55.876;9.830;2023-02-07T14:27:01;21.83;47.08
31443;SHT31;18065;55.876;9.830;2023-02-07T14:32:41;21.83;47.01
31443;SHT31;18065;55.876;9.830;2023-02-07T14:35:37;21.81;47.09
31443;SHT31;18065;55.876;9.830;2023-02-07T14:38:21;21.83;47.02
31443;SHT31;18065;55.876;9.830;2023-02-07T14:40:54;21.80;46.94
31443;SHT31;18065;55.876;9.830;2023-02-07T14:43:35;21.81;47.00
31443;SHT31;18065;55.876;9.830;2023-02-07T14:46:10;21.79;46.91
31443;SHT31;18065;55.876;9.830;2023-02-07T14:48:48;21.80;46.91
31443;SHT31;18065;55.876;9.830;2023-02-07T14:51:23;21.79;46.88
31443;SHT31;18065;55.876;9.830;2023-02-07T14:54:00;21.77;46.82
31443;SHT31;18065;55.876;9.830;2023-02-07T14:56:45;21.74;46.85
31443;SHT31;18065;55.876;9.830;2023-02-07T14:59:19;21.73;46.77
31443;SHT31;18065;55.876;9.830;2023-02-07T15:01:50;21.76;46.83
31443;SHT31;18065;55.876;9.830;2023-02-07T15:04:19;21.74;46.74
31443;SHT31;18065;55.876;9.830;2023-02-07T15:06:51;21.74;46.76
31443;SHT31;18065;55.876;9.830;2023-02-07T15:09:23;21.73;46.72
31443;SHT31;18065;55.876;9.830;2023-02-07T15:11:53;21.76;46.60
31443;SHT31;18065;55.876;9.830;2023-02-07T15:14:30;21.76;46.61
31443;SHT31;18065;55.876;9.830;2023-02-07T15:17:00;21.73;46.61
31443;SHT31;18065;55.876;9.830;2023-02-07T15:19:32;21.74;46.64
31443;SHT31;18065;55.876;9.830;2023-02-07T15:22:05;21.73;46.56
31443;SHT31;18065;55.876;9.830;2023-02-07T15:24:36;21.74;46.63
31443;SHT31;18065;55.876;9.830;2023-02-07T15:27:18;21.73;46.63
31443;SHT31;18065;55.876;9.830;2023-02-07T15:29:53;21.70;46.68
31443;SHT31;18065;55.876;9.830;2023-02-07T15:32:23;21.69;46.71
31443;SHT31;18065;55.876;9.830;2023-02-07T15:34:54;21.70;46.66
31443;SHT31;18065;55.876;9.830;2023-02-07T15:37:25;21.69;46.73
31443;SHT31;18065;55.876;9.830;2023-02-07T15:39:55;21.67;46.71
31443;SHT31;18065;55.876;9.830;2023-02-07T15:42:24;21.67;46.67
31443;SHT31;18065;55.876;9.830;2023-02-07T15:44:54;21.69;46.59
31443;SHT31;18065;55.876;9.830;2023-02-07T15:47:32;21.67;46.64
31443;SHT31;18065;55.876;9.830;2023-02-07T15:50:04;21.65;46.62
31443;SHT31;18065;55.876;9.830;2023-02-07T15:52:38;21.63;46.71
31443;SHT31;18065;55.876;9.830;2023-02-07T15:55:16;21.63;46.69
31443;SHT31;18065;55.876;9.830;2023-02-07T15:57:45;21.62;46.64
31443;SHT31;18065;55.876;9.830;2023-02-07T16:00:17;21.63;46.64
31443;SHT31;18065;55.876;9.830;2023-02-07T16:02:54;21.62;46.61
31443;SHT31;18065;55.876;9.830;2023-02-07T16:05:27;21.65;46.67
31443;SHT31;18065;55.876;9.830;2023-02-07T16:08:00;21.65;46.68
31443;SHT31;18065;55.876;9.830;2023-02-07T16:10:34;21.65;46.67
31443;SHT31;18065;55.876;9.830;2023-02-07T16:13:13;21.63;46.71
31443;SHT31;18065;55.876;9.830;2023-02-07T16:15:52;21.63;46.70
31443;SHT31;18065;55.876;9.830;2023-02-07T16:18:35;21.65;46.77